createdAt,value
2023-05-05T00:01:15.200Z,4.20
2023-05-05T00:05:16.613Z,3.97
2023-05-05T00:09:18.203Z,5.97
2023-05-05T00:13:20.920Z,4.07
2023-05-05T00:17:22.222Z,6.45
2023-05-05T00:21:23.515Z,4.75
2023-05-05T00:25:24.909Z,6.40
2023-05-05T00:29:26.632Z,4.23
2023-05-05T00:33:28.005Z,3.95
2023-05-05T00:37:29.351Z,3.72
2023-05-05T00:41:31.893Z,6.27
2023-05-05T00:45:33.283Z,3.90
2023-05-05T00:49:35.782Z,4.15
2023-05-05T00:53:39.659Z,4.43
2023-05-05T00:57:40.963Z,5.10
2023-05-05T01:01:42.355Z,4.67
2023-05-05T01:06:04.393Z,4.60
2023-05-05T01:10:26.064Z,4.70
2023-05-05T01:14:40.864Z,5.17
2023-05-05T01:19:14.960Z,5.43
2023-05-05T01:23:51.699Z,5.30
2023-05-05T01:27:56.065Z,5.00
2023-05-05T01:32:14.257Z,6.23
2023-05-05T01:36:24.154Z,5.50
2023-05-05T01:40:30.098Z,6.00
2023-05-05T01:44:34.647Z,6.43
2023-05-05T01:48:37.391Z,5.73
2023-05-05T01:52:41.138Z,5.77
2023-05-05T01:56:43.380Z,5.10
2023-05-05T02:00:45.521Z,5.20
2023-05-05T02:04:47.960Z,7.77
2023-05-05T02:08:50.976Z,4.67
2023-05-05T02:12:53.284Z,4.60
2023-05-05T02:16:56.923Z,5.03
2023-05-05T02:20:58.329Z,5.50
2023-05-05T02:24:59.770Z,5.10
2023-05-05T02:29:07.831Z,5.00
2023-05-05T02:33:17.134Z,5.80
2023-05-05T02:37:23.101Z,5.37
2023-05-05T02:41:26.801Z,6.80
2023-05-05T02:45:28.428Z,5.70
2023-05-05T02:49:29.919Z,6.80
2023-05-05T02:53:31.633Z,4.97
2023-05-05T02:57:47.348Z,5.10
2023-05-05T03:02:12.564Z,6.03
2023-05-05T03:06:17.337Z,7.17
2023-05-05T03:10:21.772Z,5.77
2023-05-05T03:14:24.630Z,7.33
2023-05-05T03:18:28.860Z,6.30
2023-05-05T03:22:30.613Z,6.10
2023-05-05T03:26:31.931Z,6.00
2023-05-05T03:30:33.236Z,7.00
2023-05-05T03:34:37.282Z,5.80
2023-05-05T03:38:38.600Z,6.07
2023-05-05T03:42:40.008Z,6.73
2023-05-05T03:46:41.389Z,7.93
2023-05-05T03:50:44.948Z,6.37
2023-05-05T03:54:46.345Z,7.73
2023-05-05T03:58:47.769Z,7.60
2023-05-05T04:02:49.144Z,7.07
2023-05-05T04:06:50.481Z,8.67
2023-05-05T04:10:51.832Z,7.27
2023-05-05T04:14:53.131Z,7.57
2023-05-05T04:18:55.311Z,7.87
2023-05-05T04:22:56.611Z,7.27
2023-05-05T04:26:57.971Z,7.50
2023-05-05T04:31:01.010Z,9.17
2023-05-05T04:35:02.549Z,7.20
2023-05-05T04:39:04.323Z,7.20
2023-05-05T04:43:06.931Z,19.73
2023-05-05T04:47:08.606Z,13.10
2023-05-05T04:51:10.102Z,9.73
2023-05-05T04:55:12.461Z,11.13
2023-05-05T04:59:14.588Z,10.50
2023-05-05T05:03:15.981Z,16.77
2023-05-05T05:07:17.331Z,15.77
2023-05-05T05:11:18.769Z,39.58
2023-05-05T05:15:20.257Z,22.37
2023-05-05T05:19:21.716Z,15.60
2023-05-05T05:23:23.108Z,7.83
2023-05-05T05:27:24.420Z,10.60
2023-05-05T05:31:25.803Z,8.65
2023-05-05T05:35:27.158Z,14.07
2023-05-05T05:39:28.444Z,11.43
2023-05-05T05:43:29.796Z,23.23
2023-05-05T05:47:31.174Z,15.00
2023-05-05T05:51:32.571Z,24.65
2023-05-05T05:55:33.987Z,13.98
2023-05-05T05:59:35.264Z,24.88
2023-05-05T06:03:36.653Z,15.07
2023-05-05T06:07:38.220Z,13.50
2023-05-05T06:11:39.688Z,45.53
2023-05-05T06:15:41.061Z,40.17
2023-05-05T06:19:43.302Z,29.33
2023-05-05T06:23:44.669Z,83.22
2023-05-05T06:27:46.311Z,44.88
2023-05-05T06:31:47.623Z,20.60
2023-05-05T06:35:51.885Z,48.55
2023-05-05T06:39:53.331Z,13.10
2023-05-05T06:43:54.649Z,10.25
2023-05-05T06:47:56.025Z,10.52
2023-05-05T06:51:57.398Z,12.07
2023-05-05T06:55:58.704Z,11.65
2023-05-05T07:00:00.396Z,12.07
2023-05-05T07:04:01.936Z,13.25
2023-05-05T07:08:03.672Z,10.85
2023-05-05T07:12:05.244Z,9.88
2023-05-05T07:16:06.775Z,11.43
2023-05-05T07:20:10.860Z,11.23
2023-05-05T07:24:12.377Z,15.75
2023-05-05T07:28:13.733Z,10.38
2023-05-05T07:32:15.209Z,10.07
2023-05-05T07:36:17.904Z,22.00
2023-05-05T07:40:19.613Z,8.00
2023-05-05T07:44:21.117Z,7.50
2023-05-05T07:48:22.558Z,7.78
2023-05-05T07:52:37.098Z,13.38
2023-05-05T07:56:45.803Z,21.13
2023-05-05T08:00:47.858Z,11.50
2023-05-05T08:04:49.302Z,5.30
2023-05-05T08:08:55.204Z,8.00
2023-05-05T08:12:56.636Z,7.53
2023-05-05T08:16:57.995Z,6.40
2023-05-05T08:20:59.309Z,6.38
2023-05-05T08:25:00.649Z,9.88
2023-05-05T08:29:02.286Z,8.82
2023-05-05T08:33:03.751Z,9.15
2023-05-05T08:37:05.198Z,9.48
2023-05-05T08:41:09.769Z,8.45
2023-05-05T08:45:11.912Z,17.80
2023-05-05T08:49:15.844Z,11.80
2023-05-05T08:53:19.853Z,8.20
2023-05-05T08:57:28.286Z,9.43
2023-05-05T09:01:31.867Z,8.65
2023-05-05T09:05:33.279Z,24.90
2023-05-05T09:09:35.456Z,9.32
2023-05-05T09:13:36.834Z,20.40
2023-05-05T09:17:39.029Z,10.43
2023-05-05T09:21:48.880Z,9.55
2023-05-05T09:26:04.344Z,17.00
2023-05-05T09:30:06.503Z,26.13
2023-05-05T09:34:15.811Z,16.30
2023-05-05T09:38:18.695Z,9.88
2023-05-05T09:42:20.059Z,9.75
2023-05-05T09:46:21.779Z,11.45
2023-05-05T09:50:23.486Z,10.90
2023-05-05T09:54:29.591Z,14.93
2023-05-05T09:58:31.316Z,30.17
2023-05-05T10:02:35.081Z,8.40
2023-05-05T10:06:43.878Z,10.15
2023-05-05T10:10:54.287Z,9.13
2023-05-05T10:14:56.397Z,14.30
2023-05-05T10:19:01.465Z,5.32
2023-05-05T10:23:06.610Z,6.88
2023-05-05T10:27:19.104Z,6.30
2023-05-05T10:31:37.003Z,5.60
2023-05-05T10:35:41.626Z,7.43
2023-05-05T10:39:44.589Z,9.55
2023-05-05T10:43:46.845Z,6.15
2023-05-05T10:47:49.879Z,5.68
2023-05-05T10:52:20.707Z,7.78
2023-05-05T10:56:27.846Z,7.82
2023-05-05T11:00:49.678Z,7.35
2023-05-05T11:05:17.962Z,7.43
2023-05-05T11:09:29.654Z,5.32
2023-05-05T11:13:31.471Z,5.90
2023-05-05T11:17:46.573Z,10.65
2023-05-05T11:22:01.835Z,10.13
2023-05-05T11:26:04.068Z,5.80
2023-05-05T11:30:10.732Z,6.43
2023-05-05T11:34:26.780Z,5.45
2023-05-05T11:38:41.091Z,2.60
2023-05-05T11:42:42.597Z,6.50
2023-05-05T11:46:53.001Z,6.00
2023-05-05T11:50:54.831Z,7.57
2023-05-05T11:55:01.697Z,9.23
2023-05-05T11:59:11.007Z,7.00
2023-05-05T12:03:12.530Z,8.77
2023-05-05T12:07:19.006Z,7.03
2023-05-05T12:11:20.986Z,7.03
2023-05-05T12:15:32.303Z,7.43
2023-05-05T12:19:34.598Z,5.10
2023-05-05T12:23:39.158Z,3.50
2023-05-05T12:27:41.247Z,5.38
2023-05-05T12:31:42.915Z,5.22
2023-05-05T12:35:44.355Z,4.75
2023-05-05T12:39:45.869Z,5.40
2023-05-05T12:43:47.609Z,5.80
2023-05-05T12:47:48.926Z,5.85
2023-05-05T12:51:55.388Z,4.68
2023-05-05T12:55:56.738Z,3.00
2023-05-05T12:59:58.279Z,4.47
2023-05-05T13:04:08.244Z,3.53
2023-05-05T13:08:09.692Z,4.20
2023-05-05T13:12:11.926Z,3.88
2023-05-05T13:16:13.360Z,4.57
2023-05-05T13:20:15.330Z,4.18
2023-05-05T13:28:21.099Z,4.53
2023-05-05T13:32:23.641Z,4.28
2023-05-05T13:36:25.184Z,7.03
2023-05-05T13:40:26.520Z,6.68
2023-05-05T13:44:27.841Z,5.55
2023-05-05T13:48:29.210Z,5.78
2023-05-05T13:52:32.116Z,4.60
2023-05-05T13:56:35.104Z,6.25
2023-05-05T14:00:36.833Z,8.63
2023-05-05T14:04:38.357Z,4.03
2023-05-05T14:08:39.750Z,6.35
2023-05-05T14:12:41.190Z,9.00
2023-05-05T14:16:42.486Z,4.88
2023-05-05T14:20:43.898Z,6.47
2023-05-05T14:24:45.318Z,4.80
2023-05-05T14:28:48.393Z,5.60
2023-05-05T14:32:51.220Z,7.25
2023-05-05T14:36:52.677Z,6.45
2023-05-05T14:40:54.162Z,7.85
2023-05-05T14:44:55.565Z,7.97
2023-05-05T14:48:57.710Z,10.57
2023-05-05T14:52:59.083Z,9.50
2023-05-05T14:57:00.561Z,8.80
2023-05-05T15:01:01.906Z,8.00
2023-05-05T15:05:03.310Z,6.97
2023-05-05T15:09:04.661Z,6.60
2023-05-05T15:13:06.386Z,4.20
2023-05-05T15:17:07.736Z,4.00
2023-05-05T15:21:09.108Z,3.60
2023-05-05T15:25:12.424Z,3.60
2023-05-05T15:29:13.850Z,5.07
2023-05-05T15:33:15.265Z,5.30
2023-05-05T15:37:16.670Z,4.63
2023-05-05T15:41:18.059Z,6.67
2023-05-05T15:45:19.398Z,6.97
2023-05-05T15:49:20.769Z,4.43
2023-05-05T15:53:22.080Z,3.30
2023-05-05T15:57:23.441Z,3.97
2023-05-05T16:01:24.847Z,5.07
2023-05-05T16:05:26.160Z,4.47
2023-05-05T16:09:27.721Z,6.07
2023-05-05T16:13:29.147Z,4.67
2023-05-05T16:17:30.993Z,6.33
2023-05-05T16:21:33.271Z,4.97
2023-05-05T16:25:34.605Z,4.13
2023-05-05T16:29:36.153Z,4.23
2023-05-05T16:33:40.725Z,4.90
2023-05-05T16:37:42.040Z,4.47
2023-05-05T16:41:43.320Z,3.73
2023-05-05T16:45:44.609Z,5.50
2023-05-05T16:49:45.967Z,4.57
2023-05-05T16:53:48.933Z,5.20
2023-05-05T16:57:50.532Z,3.90
2023-05-05T17:01:51.878Z,5.30
2023-05-05T17:05:53.536Z,4.90
2023-05-05T17:09:55.029Z,4.97
2023-05-05T17:13:56.326Z,7.30
2023-05-05T17:17:57.778Z,4.87
2023-05-05T17:21:59.300Z,4.40
2023-05-05T17:26:00.683Z,4.27
2023-05-05T17:30:02.082Z,5.80
2023-05-05T17:34:03.372Z,5.57
2023-05-05T17:38:04.712Z,4.53
2023-05-05T17:42:06.112Z,5.20
2023-05-05T17:46:07.492Z,5.20
2023-05-05T17:50:10.894Z,5.77
2023-05-05T17:54:12.214Z,6.37
2023-05-05T17:58:13.645Z,6.00
2023-05-05T18:02:15.307Z,10.13
2023-05-05T18:06:16.930Z,9.23
2023-05-05T18:10:18.342Z,11.17
2023-05-05T18:14:20.316Z,15.27
2023-05-05T18:18:22.099Z,15.77
2023-05-05T18:22:23.501Z,18.20
2023-05-05T18:26:25.028Z,19.30
2023-05-05T18:30:26.446Z,18.57
2023-05-05T18:34:29.366Z,16.87
2023-05-05T18:38:32.589Z,15.80
2023-05-05T18:42:33.948Z,17.63
2023-05-05T18:46:35.419Z,15.33
2023-05-05T18:50:37.128Z,14.50
2023-05-05T18:54:38.530Z,14.47
2023-05-05T18:58:39.800Z,17.60
2023-05-05T19:02:41.154Z,17.03
2023-05-05T19:06:42.533Z,17.67
2023-05-05T19:10:43.954Z,18.43
2023-05-05T19:14:45.426Z,18.93
2023-05-05T19:18:46.783Z,16.33
2023-05-05T19:22:48.266Z,16.97
2023-05-05T19:26:49.712Z,14.63
2023-05-05T19:30:52.080Z,13.50
2023-05-05T19:34:56.555Z,19.43
2023-05-05T19:39:03.124Z,13.30
2023-05-05T19:43:04.551Z,14.10
2023-05-05T19:47:05.945Z,13.67
2023-05-05T19:51:07.356Z,16.03
2023-05-05T19:55:10.323Z,15.23
2023-05-05T19:59:12.019Z,15.30
2023-05-05T20:03:13.684Z,15.33
2023-05-05T20:07:15.737Z,14.13
2023-05-05T20:11:17.216Z,15.30
2023-05-05T20:15:20.414Z,17.07
2023-05-05T20:19:21.732Z,17.13
2023-05-05T20:23:23.144Z,17.67
2023-05-05T20:27:26.569Z,17.97
2023-05-05T20:31:28.780Z,20.87
2023-05-05T20:35:30.374Z,21.50
2023-05-05T20:39:31.738Z,21.00
2023-05-05T20:43:33.921Z,27.37
2023-05-05T20:47:35.716Z,31.17
2023-05-05T20:51:37.029Z,27.50
2023-05-05T20:55:38.387Z,35.63
2023-05-05T20:59:39.773Z,32.43
2023-05-05T21:03:41.279Z,32.63
2023-05-05T21:07:42.782Z,28.80
2023-05-05T21:11:44.189Z,29.57
2023-05-05T21:15:45.515Z,28.97
2023-05-05T21:19:47.003Z,28.90
2023-05-05T21:23:48.380Z,28.03
2023-05-05T21:27:49.801Z,27.20
2023-05-05T21:31:51.364Z,27.17
2023-05-05T21:35:52.706Z,29.40
2023-05-05T21:39:54.166Z,30.33
2023-05-05T21:43:55.645Z,29.27
2023-05-05T21:47:57.082Z,29.23
2023-05-05T21:51:58.700Z,26.37
2023-05-05T21:56:00.485Z,30.80
2023-05-05T22:00:02.728Z,38.30
2023-05-05T22:04:04.305Z,36.33
2023-05-05T22:08:06.019Z,31.43
2023-05-05T22:12:07.731Z,34.33
2023-05-05T22:16:09.988Z,32.37
2023-05-05T22:20:11.750Z,33.13
2023-05-05T22:24:13.209Z,30.83
2023-05-05T22:28:14.668Z,29.67
2023-05-05T22:32:16.031Z,28.23
2023-05-05T22:36:17.393Z,30.90
2023-05-05T22:40:18.754Z,34.07
2023-05-05T22:44:20.455Z,37.23
2023-05-05T22:48:21.869Z,34.07
2023-05-05T22:52:25.533Z,35.30
2023-05-05T22:56:26.971Z,30.97
2023-05-05T23:00:28.478Z,32.80
2023-05-05T23:04:30.043Z,29.93
2023-05-05T23:08:31.479Z,37.50
2023-05-05T23:12:33.065Z,35.37
2023-05-05T23:16:34.618Z,39.43
2023-05-05T23:20:36.052Z,34.30
2023-05-05T23:24:37.321Z,45.93
2023-05-05T23:28:38.757Z,34.27
2023-05-05T23:32:40.318Z,37.93
2023-05-05T23:36:41.792Z,35.17
2023-05-05T23:40:43.252Z,35.20
2023-05-05T23:44:44.538Z,30.97
2023-05-05T23:48:45.954Z,31.40
2023-05-05T23:52:47.321Z,32.13
2023-05-05T23:56:48.916Z,33.90
